sensor_id;sensor_type;location;lat;lon;timestamp;P1;durP1;ratioP1;P2;durP2;ratioP2
9240;SDS011;53485;49.326;9.738;2022-09-28T00:00:57;0.60;;;0.60;;
9240;SDS011;53485;49.326;9.738;2022-09-28T00:03:25;0.93;;;0.50;;
9240;SDS011;53485;49.326;9.738;2022-09-28T00:05:52;1.27;;;0.50;;
9240;SDS011;53485;49.326;9.738;2022-09-28T00:08:19;0.47;;;0.47;;
9240;SDS011;53485;49.326;9.738;2022-09-28T00:10:53;0.67;;;0.50;;
9240;SDS011;53485;49.326;9.738;2022-09-28T00:13:13;0.50;;;0.50;;
9240;SDS011;53485;49.326;9.738;2022-09-28T00:15:41;0.47;;;0.47;;
9240;SDS011;53485;49.326;9.738;2022-09-28T00:18:08;1.47;;;0.60;;
9240;SDS011;53485;49.326;9.738;2022-09-28T00:20:36;1.00;;;0.50;;
9240;SDS011;53485;49.326;9.738;2022-09-28T00:23:03;3.93;;;0.60;;
9240;SDS011;53485;49.326;9.738;2022-09-28T00:25:30;1.03;;;0.50;;
9240;SDS011;53485;49.326;9.738;2022-09-28T00:27:57;0.40;;;0.40;;
9240;SDS011;53485;49.326;9.738;2022-09-28T00:30:25;0.87;;;0.40;;
9240;SDS011;53485;49.326;9.738;2022-09-28T00:32:52;0.53;;;0.43;;
9240;SDS011;53485;49.326;9.738;2022-09-28T00:35:19;0.53;;;0.37;;
9240;SDS011;53485;49.326;9.738;2022-09-28T00:37:47;3.03;;;0.40;;
9240;SDS011;53485;49.326;9.738;2022-09-28T00:40:14;0.30;;;0.30;;
9240;SDS011;53485;49.326;9.738;2022-09-28T00:42:41;0.80;;;0.60;;
9240;SDS011;53485;49.326;9.738;2022-09-28T00:45:08;0.53;;;0.43;;
9240;SDS011;53485;49.326;9.738;2022-09-28T00:50:11;0.60;;;0.60;;
9240;SDS011;53485;49.326;9.738;2022-09-28T00:53:00;0.97;;;0.50;;
9240;SDS011;53485;49.326;9.738;2022-09-28T00:55:29;0.47;;;0.40;;
9240;SDS011;53485;49.326;9.738;2022-09-28T00:57:53;0.47;;;0.40;;
9240;SDS011;53485;49.326;9.738;2022-09-28T01:00:18;0.60;;;0.40;;
9240;SDS011;53485;49.326;9.738;2022-09-28T01:02:46;2.40;;;0.43;;
9240;SDS011;53485;49.326;9.738;2022-09-28T01:05:13;0.50;;;0.40;;
9240;SDS011;53485;49.326;9.738;2022-09-28T01:07:40;0.70;;;0.60;;
9240;SDS011;53485;49.326;9.738;2022-09-28T01:10:07;0.40;;;0.40;;
9240;SDS011;53485;49.326;9.738;2022-09-28T01:12:35;2.50;;;0.70;;
9240;SDS011;53485;49.326;9.738;2022-09-28T01:15:02;0.50;;;0.40;;
9240;SDS011;53485;49.326;9.738;2022-09-28T01:17:36;1.97;;;0.47;;
9240;SDS011;53485;49.326;9.738;2022-09-28T01:20:22;0.80;;;0.60;;
9240;SDS011;53485;49.326;9.738;2022-09-28T01:28:03;1.80;;;0.70;;
9240;SDS011;53485;49.326;9.738;2022-09-28T01:30:29;1.03;;;0.70;;
9240;SDS011;53485;49.326;9.738;2022-09-28T01:32:57;1.93;;;0.60;;
9240;SDS011;53485;49.326;9.738;2022-09-28T01:35:35;1.07;;;0.60;;
9240;SDS011;53485;49.326;9.738;2022-09-28T01:38:03;2.20;;;0.80;;
9240;SDS011;53485;49.326;9.738;2022-09-28T01:40:28;1.77;;;0.70;;
9240;SDS011;53485;49.326;9.738;2022-09-28T01:42:59;2.00;;;0.90;;
9240;SDS011;53485;49.326;9.738;2022-09-28T01:45:27;2.07;;;0.90;;
9240;SDS011;53485;49.326;9.738;2022-09-28T01:47:54;2.37;;;1.10;;
9240;SDS011;53485;49.326;9.738;2022-09-28T01:50:20;1.90;;;1.20;;
9240;SDS011;53485;49.326;9.738;2022-09-28T01:52:50;1.57;;;0.93;;
9240;SDS011;53485;49.326;9.738;2022-09-28T01:57:57;1.87;;;0.90;;
9240;SDS011;53485;49.326;9.738;2022-09-28T02:00:22;4.70;;;1.00;;
9240;SDS011;53485;49.326;9.738;2022-09-28T02:02:51;4.40;;;1.00;;
9240;SDS011;53485;49.326;9.738;2022-09-28T02:05:18;2.07;;;1.03;;
9240;SDS011;53485;49.326;9.738;2022-09-28T02:07:46;1.20;;;0.90;;
9240;SDS011;53485;49.326;9.738;2022-09-28T02:10:14;2.87;;;1.00;;
9240;SDS011;53485;49.326;9.738;2022-09-28T02:12:40;3.63;;;0.90;;
9240;SDS011;53485;49.326;9.738;2022-09-28T02:15:17;1.90;;;0.90;;
9240;SDS011;53485;49.326;9.738;2022-09-28T02:17:45;2.93;;;0.90;;
9240;SDS011;53485;49.326;9.738;2022-09-28T02:20:13;1.23;;;0.80;;
9240;SDS011;53485;49.326;9.738;2022-09-28T02:22:48;2.93;;;1.03;;
9240;SDS011;53485;49.326;9.738;2022-09-28T02:25:33;3.00;;;1.10;;
9240;SDS011;53485;49.326;9.738;2022-09-28T02:28:00;1.43;;;0.80;;
9240;SDS011;53485;49.326;9.738;2022-09-28T02:30:28;3.07;;;0.80;;
9240;SDS011;53485;49.326;9.738;2022-09-28T02:32:55;2.50;;;1.33;;
9240;SDS011;53485;49.326;9.738;2022-09-28T02:35:21;1.67;;;0.77;;
9240;SDS011;53485;49.326;9.738;2022-09-28T02:37:49;1.37;;;0.90;;
9240;SDS011;53485;49.326;9.738;2022-09-28T02:40:18;1.27;;;0.93;;
9240;SDS011;53485;49.326;9.738;2022-09-28T02:42:45;2.23;;;0.90;;
9240;SDS011;53485;49.326;9.738;2022-09-28T02:45:26;1.33;;;0.90;;
9240;SDS011;53485;49.326;9.738;2022-09-28T02:48:02;1.13;;;1.03;;
9240;SDS011;53485;49.326;9.738;2022-09-28T02:50:59;1.30;;;1.00;;
9240;SDS011;53485;49.326;9.738;2022-09-28T02:56:24;1.40;;;0.90;;
9240;SDS011;53485;49.326;9.738;2022-09-28T02:59:08;3.20;;;0.80;;
9240;SDS011;53485;49.326;9.738;2022-09-28T03:01:47;3.33;;;1.13;;
9240;SDS011;53485;49.326;9.738;2022-09-28T03:04:35;2.17;;;0.80;;
9240;SDS011;53485;49.326;9.738;2022-09-28T03:07:04;2.50;;;0.87;;
9240;SDS011;53485;49.326;9.738;2022-09-28T03:09:32;2.17;;;1.40;;
9240;SDS011;53485;49.326;9.738;2022-09-28T03:11:59;2.33;;;1.30;;
9240;SDS011;53485;49.326;9.738;2022-09-28T03:14:25;4.03;;;1.60;;
9240;SDS011;53485;49.326;9.738;2022-09-28T03:16:52;4.47;;;1.53;;
9240;SDS011;53485;49.326;9.738;2022-09-28T03:19:20;2.70;;;1.73;;
9240;SDS011;53485;49.326;9.738;2022-09-28T03:21:46;2.43;;;1.80;;
9240;SDS011;53485;49.326;9.738;2022-09-28T03:24:13;2.27;;;1.20;;
9240;SDS011;53485;49.326;9.738;2022-09-28T03:26:40;3.33;;;1.50;;
9240;SDS011;53485;49.326;9.738;2022-09-28T03:29:07;2.47;;;1.40;;
9240;SDS011;53485;49.326;9.738;2022-09-28T03:31:35;2.93;;;1.50;;
9240;SDS011;53485;49.326;9.738;2022-09-28T03:34:02;3.53;;;1.30;;
9240;SDS011;53485;49.326;9.738;2022-09-28T03:36:30;2.70;;;1.50;;
9240;SDS011;53485;49.326;9.738;2022-09-28T03:38:57;3.27;;;1.80;;
9240;SDS011;53485;49.326;9.738;2022-09-28T03:41:25;3.33;;;1.63;;
9240;SDS011;53485;49.326;9.738;2022-09-28T03:43:53;3.50;;;1.50;;
9240;SDS011;53485;49.326;9.738;2022-09-28T03:46:31;4.63;;;1.33;;
9240;SDS011;53485;49.326;9.738;2022-09-28T03:48:58;2.60;;;1.40;;
9240;SDS011;53485;49.326;9.738;2022-09-28T03:51:26;1.83;;;1.03;;
9240;SDS011;53485;49.326;9.738;2022-09-28T03:53:53;3.30;;;1.07;;
9240;SDS011;53485;49.326;9.738;2022-09-28T03:56:20;6.10;;;1.40;;
9240;SDS011;53485;49.326;9.738;2022-09-28T03:58:48;3.13;;;1.03;;
9240;SDS011;53485;49.326;9.738;2022-09-28T04:01:15;2.77;;;1.00;;
9240;SDS011;53485;49.326;9.738;2022-09-28T04:03:42;0.90;;;0.90;;
9240;SDS011;53485;49.326;9.738;2022-09-28T04:06:09;4.60;;;1.30;;
9240;SDS011;53485;49.326;9.738;2022-09-28T04:08:36;1.80;;;1.17;;
9240;SDS011;53485;49.326;9.738;2022-09-28T04:11:03;3.87;;;1.57;;
9240;SDS011;53485;49.326;9.738;2022-09-28T04:13:31;2.07;;;1.87;;
9240;SDS011;53485;49.326;9.738;2022-09-28T04:15:58;3.90;;;1.87;;
9240;SDS011;53485;49.326;9.738;2022-09-28T04:18:25;1.87;;;1.57;;
9240;SDS011;53485;49.326;9.738;2022-09-28T04:20:57;5.87;;;1.70;;
9240;SDS011;53485;49.326;9.738;2022-09-28T04:23:26;3.33;;;1.80;;
9240;SDS011;53485;49.326;9.738;2022-09-28T04:25:53;3.70;;;2.00;;
9240;SDS011;53485;49.326;9.738;2022-09-28T04:28:20;1.77;;;1.60;;
9240;SDS011;53485;49.326;9.738;2022-09-28T04:30:53;3.40;;;1.70;;
9240;SDS011;53485;49.326;9.738;2022-09-28T04:33:21;2.40;;;1.67;;
9240;SDS011;53485;49.326;9.738;2022-09-28T04:35:48;3.67;;;1.60;;
9240;SDS011;53485;49.326;9.738;2022-09-28T04:38:15;6.73;;;2.20;;
9240;SDS011;53485;49.326;9.738;2022-09-28T04:40:43;2.10;;;1.40;;
9240;SDS011;53485;49.326;9.738;2022-09-28T04:43:10;1.40;;;1.20;;
9240;SDS011;53485;49.326;9.738;2022-09-28T04:45:38;1.63;;;0.93;;
9240;SDS011;53485;49.326;9.738;2022-09-28T04:48:05;1.77;;;1.30;;
9240;SDS011;53485;49.326;9.738;2022-09-28T04:50:32;3.40;;;1.13;;
9240;SDS011;53485;49.326;9.738;2022-09-28T04:53:00;1.60;;;1.20;;
9240;SDS011;53485;49.326;9.738;2022-09-28T04:55:27;1.67;;;0.90;;
9240;SDS011;53485;49.326;9.738;2022-09-28T04:57:54;2.67;;;1.20;;
9240;SDS011;53485;49.326;9.738;2022-09-28T05:00:22;2.50;;;1.10;;
9240;SDS011;53485;49.326;9.738;2022-09-28T05:02:49;1.17;;;0.90;;
9240;SDS011;53485;49.326;9.738;2022-09-28T05:05:17;3.70;;;1.17;;
9240;SDS011;53485;49.326;9.738;2022-09-28T05:07:44;3.70;;;1.20;;
9240;SDS011;53485;49.326;9.738;2022-09-28T05:10:11;2.20;;;1.30;;
9240;SDS011;53485;49.326;9.738;2022-09-28T05:12:38;2.23;;;1.40;;
9240;SDS011;53485;49.326;9.738;2022-09-28T05:15:06;4.73;;;1.33;;
9240;SDS011;53485;49.326;9.738;2022-09-28T05:17:34;7.10;;;1.67;;
9240;SDS011;53485;49.326;9.738;2022-09-28T05:20:01;4.27;;;2.33;;
9240;SDS011;53485;49.326;9.738;2022-09-28T05:22:28;5.20;;;2.13;;
9240;SDS011;53485;49.326;9.738;2022-09-28T05:24:56;8.13;;;2.13;;
9240;SDS011;53485;49.326;9.738;2022-09-28T05:27:23;5.37;;;2.33;;
9240;SDS011;53485;49.326;9.738;2022-09-28T05:29:50;8.37;;;2.30;;
9240;SDS011;53485;49.326;9.738;2022-09-28T05:32:18;7.63;;;3.33;;
9240;SDS011;53485;49.326;9.738;2022-09-28T05:34:45;4.23;;;2.50;;
9240;SDS011;53485;49.326;9.738;2022-09-28T05:37:13;5.77;;;3.30;;
9240;SDS011;53485;49.326;9.738;2022-09-28T05:39:40;4.50;;;3.17;;
9240;SDS011;53485;49.326;9.738;2022-09-28T05:42:07;4.00;;;3.40;;
9240;SDS011;53485;49.326;9.738;2022-09-28T05:44:35;4.60;;;3.40;;
9240;SDS011;53485;49.326;9.738;2022-09-28T05:47:02;7.30;;;4.20;;
9240;SDS011;53485;49.326;9.738;2022-09-28T05:49:29;9.33;;;5.60;;
9240;SDS011;53485;49.326;9.738;2022-09-28T05:51:56;12.00;;;5.23;;
9240;SDS011;53485;49.326;9.738;2022-09-28T05:54:24;11.47;;;5.40;;
9240;SDS011;53485;49.326;9.738;2022-09-28T05:56:51;8.07;;;5.53;;
9240;SDS011;53485;49.326;9.738;2022-09-28T05:59:19;12.03;;;6.20;;
9240;SDS011;53485;49.326;9.738;2022-09-28T06:01:46;10.80;;;6.23;;
9240;SDS011;53485;49.326;9.738;2022-09-28T06:04:13;11.23;;;5.40;;
9240;SDS011;53485;49.326;9.738;2022-09-28T06:06:41;16.10;;;7.20;;
9240;SDS011;53485;49.326;9.738;2022-09-28T06:09:08;8.23;;;5.73;;
9240;SDS011;53485;49.326;9.738;2022-09-28T06:11:35;12.03;;;6.93;;
9240;SDS011;53485;49.326;9.738;2022-09-28T06:14:03;10.33;;;6.20;;
9240;SDS011;53485;49.326;9.738;2022-09-28T06:16:30;13.20;;;6.90;;
9240;SDS011;53485;49.326;9.738;2022-09-28T06:18:57;12.03;;;6.60;;
9240;SDS011;53485;49.326;9.738;2022-09-28T06:21:25;10.53;;;6.50;;
9240;SDS011;53485;49.326;9.738;2022-09-28T06:23:52;12.83;;;6.63;;
9240;SDS011;53485;49.326;9.738;2022-09-28T06:26:19;9.40;;;6.53;;
9240;SDS011;53485;49.326;9.738;2022-09-28T06:28:46;10.83;;;5.67;;
9240;SDS011;53485;49.326;9.738;2022-09-28T06:31:14;8.80;;;5.17;;
9240;SDS011;53485;49.326;9.738;2022-09-28T06:33:41;9.37;;;5.93;;
9240;SDS011;53485;49.326;9.738;2022-09-28T06:36:09;9.43;;;5.63;;
9240;SDS011;53485;49.326;9.738;2022-09-28T06:38:36;8.83;;;6.40;;
9240;SDS011;53485;49.326;9.738;2022-09-28T06:41:03;10.83;;;5.70;;
9240;SDS011;53485;49.326;9.738;2022-09-28T06:43:31;6.17;;;5.13;;
9240;SDS011;53485;49.326;9.738;2022-09-28T06:45:58;9.30;;;5.53;;
9240;SDS011;53485;49.326;9.738;2022-09-28T06:48:25;5.23;;;4.37;;
9240;SDS011;53485;49.326;9.738;2022-09-28T06:50:52;8.20;;;4.43;;
9240;SDS011;53485;49.326;9.738;2022-09-28T06:53:20;7.13;;;4.87;;
9240;SDS011;53485;49.326;9.738;2022-09-28T06:55:47;12.70;;;4.90;;
9240;SDS011;53485;49.326;9.738;2022-09-28T06:58:16;7.77;;;5.30;;
9240;SDS011;53485;49.326;9.738;2022-09-28T07:00:42;8.20;;;6.57;;
9240;SDS011;53485;49.326;9.738;2022-09-28T07:03:10;8.90;;;5.67;;
9240;SDS011;53485;49.326;9.738;2022-09-28T07:05:36;6.93;;;5.30;;
9240;SDS011;53485;49.326;9.738;2022-09-28T07:08:03;7.10;;;5.33;;
9240;SDS011;53485;49.326;9.738;2022-09-28T07:10:30;9.00;;;5.53;;
9240;SDS011;53485;49.326;9.738;2022-09-28T07:12:57;10.33;;;6.90;;
9240;SDS011;53485;49.326;9.738;2022-09-28T07:15:23;5.50;;;4.07;;
9240;SDS011;53485;49.326;9.738;2022-09-28T07:17:50;5.80;;;4.10;;
9240;SDS011;53485;49.326;9.738;2022-09-28T07:20:16;5.20;;;4.30;;
9240;SDS011;53485;49.326;9.738;2022-09-28T07:22:43;4.87;;;3.90;;
9240;SDS011;53485;49.326;9.738;2022-09-28T07:25:10;6.10;;;4.27;;
9240;SDS011;53485;49.326;9.738;2022-09-28T07:27:38;6.70;;;4.23;;
9240;SDS011;53485;49.326;9.738;2022-09-28T07:30:05;7.37;;;5.13;;
9240;SDS011;53485;49.326;9.738;2022-09-28T07:32:33;6.17;;;4.90;;
9240;SDS011;53485;49.326;9.738;2022-09-28T07:35:01;6.63;;;4.40;;
9240;SDS011;53485;49.326;9.738;2022-09-28T07:37:28;3.43;;;3.13;;
9240;SDS011;53485;49.326;9.738;2022-09-28T07:39:55;5.07;;;4.57;;
9240;SDS011;53485;49.326;9.738;2022-09-28T07:42:28;5.57;;;4.07;;
9240;SDS011;53485;49.326;9.738;2022-09-28T07:44:56;5.67;;;3.77;;
9240;SDS011;53485;49.326;9.738;2022-09-28T07:47:22;5.90;;;3.70;;
9240;SDS011;53485;49.326;9.738;2022-09-28T07:49:49;3.47;;;3.07;;
9240;SDS011;53485;49.326;9.738;2022-09-28T07:52:16;5.83;;;2.93;;
9240;SDS011;53485;49.326;9.738;2022-09-28T07:54:43;4.10;;;2.43;;
9240;SDS011;53485;49.326;9.738;2022-09-28T07:57:11;4.37;;;2.67;;
9240;SDS011;53485;49.326;9.738;2022-09-28T07:59:38;2.93;;;2.03;;
9240;SDS011;53485;49.326;9.738;2022-09-28T08:02:07;3.47;;;2.13;;
9240;SDS011;53485;49.326;9.738;2022-09-28T08:04:32;2.50;;;1.90;;
9240;SDS011;53485;49.326;9.738;2022-09-28T08:07:00;3.20;;;1.73;;
9240;SDS011;53485;49.326;9.738;2022-09-28T08:09:27;1.60;;;1.50;;
9240;SDS011;53485;49.326;9.738;2022-09-28T08:11:54;3.00;;;1.67;;
9240;SDS011;53485;49.326;9.738;2022-09-28T08:14:21;2.63;;;1.30;;
9240;SDS011;53485;49.326;9.738;2022-09-28T08:16:48;1.80;;;1.33;;
9240;SDS011;53485;49.326;9.738;2022-09-28T08:19:15;2.50;;;1.20;;
9240;SDS011;53485;49.326;9.738;2022-09-28T08:21:43;3.77;;;1.37;;
9240;SDS011;53485;49.326;9.738;2022-09-28T08:24:12;2.60;;;0.90;;
9240;SDS011;53485;49.326;9.738;2022-09-28T08:26:39;2.37;;;1.37;;
9240;SDS011;53485;49.326;9.738;2022-09-28T08:29:05;1.10;;;0.83;;
9240;SDS011;53485;49.326;9.738;2022-09-28T08:31:33;2.90;;;0.80;;
9240;SDS011;53485;49.326;9.738;2022-09-28T08:34:00;1.13;;;0.87;;
9240;SDS011;53485;49.326;9.738;2022-09-28T08:36:27;2.07;;;0.63;;
9240;SDS011;53485;49.326;9.738;2022-09-28T08:38:54;1.47;;;0.73;;
9240;SDS011;53485;49.326;9.738;2022-09-28T08:41:57;2.00;;;0.73;;
9240;SDS011;53485;49.326;9.738;2022-09-28T08:44:11;2.07;;;0.60;;
9240;SDS011;53485;49.326;9.738;2022-09-28T08:46:54;1.03;;;0.70;;
9240;SDS011;53485;49.326;9.738;2022-09-28T08:49:39;1.37;;;0.80;;
9240;SDS011;53485;49.326;9.738;2022-09-28T08:54:43;1.83;;;0.70;;
9240;SDS011;53485;49.326;9.738;2022-09-28T08:57:14;2.70;;;0.90;;
9240;SDS011;53485;49.326;9.738;2022-09-28T08:59:55;1.60;;;0.70;;
9240;SDS011;53485;49.326;9.738;2022-09-28T09:02:24;1.77;;;0.70;;
9240;SDS011;53485;49.326;9.738;2022-09-28T09:04:49;2.37;;;0.90;;
9240;SDS011;53485;49.326;9.738;2022-09-28T09:07:31;1.60;;;0.70;;
9240;SDS011;53485;49.326;9.738;2022-09-28T09:13:01;1.97;;;1.00;;
9240;SDS011;53485;49.326;9.738;2022-09-28T09:15:39;1.97;;;1.00;;
9240;SDS011;53485;49.326;9.738;2022-09-28T09:18:08;1.27;;;1.07;;
9240;SDS011;53485;49.326;9.738;2022-09-28T09:20:46;4.10;;;1.40;;
9240;SDS011;53485;49.326;9.738;2022-09-28T09:23:19;2.97;;;1.00;;
9240;SDS011;53485;49.326;9.738;2022-09-28T09:25:47;2.77;;;0.80;;
9240;SDS011;53485;49.326;9.738;2022-09-28T09:31:07;3.40;;;0.70;;
9240;SDS011;53485;49.326;9.738;2022-09-28T09:33:40;1.60;;;0.70;;
9240;SDS011;53485;49.326;9.738;2022-09-28T09:36:07;1.27;;;0.90;;
9240;SDS011;53485;49.326;9.738;2022-09-28T09:38:40;1.27;;;0.77;;
9240;SDS011;53485;49.326;9.738;2022-09-28T09:41:10;1.00;;;0.90;;
9240;SDS011;53485;49.326;9.738;2022-09-28T09:46:13;1.57;;;0.70;;
9240;SDS011;53485;49.326;9.738;2022-09-28T09:48:44;0.90;;;0.60;;
9240;SDS011;53485;49.326;9.738;2022-09-28T09:51:15;1.60;;;0.50;;
9240;SDS011;53485;49.326;9.738;2022-09-28T09:53:56;2.30;;;0.77;;
9240;SDS011;53485;49.326;9.738;2022-09-28T09:56:23;1.60;;;0.93;;
9240;SDS011;53485;49.326;9.738;2022-09-28T09:58:50;0.40;;;0.40;;
9240;SDS011;53485;49.326;9.738;2022-09-28T10:01:17;1.33;;;0.40;;
9240;SDS011;53485;49.326;9.738;2022-09-28T10:03:43;0.50;;;0.40;;
9240;SDS011;53485;49.326;9.738;2022-09-28T10:06:11;1.93;;;0.30;;
9240;SDS011;53485;49.326;9.738;2022-09-28T10:08:38;2.27;;;0.40;;
9240;SDS011;53485;49.326;9.738;2022-09-28T10:11:06;0.67;;;0.40;;
9240;SDS011;53485;49.326;9.738;2022-09-28T10:13:33;1.40;;;0.40;;
9240;SDS011;53485;49.326;9.738;2022-09-28T10:16:00;1.73;;;0.40;;
9240;SDS011;53485;49.326;9.738;2022-09-28T10:18:27;1.10;;;0.43;;
9240;SDS011;53485;49.326;9.738;2022-09-28T10:20:54;1.87;;;0.50;;
9240;SDS011;53485;49.326;9.738;2022-09-28T10:23:37;1.83;;;0.40;;
9240;SDS011;53485;49.326;9.738;2022-09-28T10:26:06;1.33;;;0.60;;
9240;SDS011;53485;49.326;9.738;2022-09-28T10:28:34;2.43;;;0.90;;
9240;SDS011;53485;49.326;9.738;2022-09-28T10:31:05;5.43;;;1.90;;
9240;SDS011;53485;49.326;9.738;2022-09-28T10:33:29;3.17;;;1.67;;
9240;SDS011;53485;49.326;9.738;2022-09-28T10:35:55;1.30;;;0.70;;
9240;SDS011;53485;49.326;9.738;2022-09-28T10:38:22;1.97;;;1.10;;
9240;SDS011;53485;49.326;9.738;2022-09-28T10:40:50;4.03;;;1.77;;
9240;SDS011;53485;49.326;9.738;2022-09-28T10:43:22;2.20;;;0.90;;
9240;SDS011;53485;49.326;9.738;2022-09-28T10:48:28;1.00;;;0.37;;
9240;SDS011;53485;49.326;9.738;2022-09-28T10:51:03;2.20;;;0.40;;
9240;SDS011;53485;49.326;9.738;2022-09-28T10:53:32;0.93;;;0.40;;
9240;SDS011;53485;49.326;9.738;2022-09-28T10:56:01;1.00;;;0.30;;
9240;SDS011;53485;49.326;9.738;2022-09-28T10:58:33;2.37;;;0.70;;
9240;SDS011;53485;49.326;9.738;2022-09-28T11:01:06;3.63;;;0.77;;
9240;SDS011;53485;49.326;9.738;2022-09-28T11:03:46;3.00;;;0.40;;
9240;SDS011;53485;49.326;9.738;2022-09-28T11:06:07;1.70;;;0.40;;
9240;SDS011;53485;49.326;9.738;2022-09-28T11:08:36;1.27;;;0.50;;
9240;SDS011;53485;49.326;9.738;2022-09-28T11:11:07;1.13;;;0.40;;
9240;SDS011;53485;49.326;9.738;2022-09-28T11:13:40;1.23;;;0.50;;
9240;SDS011;53485;49.326;9.738;2022-09-28T11:16:27;0.87;;;0.30;;
9240;SDS011;53485;49.326;9.738;2022-09-28T11:18:54;2.27;;;0.40;;
9240;SDS011;53485;49.326;9.738;2022-09-28T11:21:22;0.50;;;0.40;;
9240;SDS011;53485;49.326;9.738;2022-09-28T11:26:20;1.73;;;0.43;;
9240;SDS011;53485;49.326;9.738;2022-09-28T11:28:50;5.07;;;0.57;;
9240;SDS011;53485;49.326;9.738;2022-09-28T11:31:16;1.93;;;0.30;;
9240;SDS011;53485;49.326;9.738;2022-09-28T11:33:44;2.77;;;0.60;;
9240;SDS011;53485;49.326;9.738;2022-09-28T11:36:29;0.97;;;0.50;;
9240;SDS011;53485;49.326;9.738;2022-09-28T11:41:36;1.60;;;0.73;;
9240;SDS011;53485;49.326;9.738;2022-09-28T11:44:38;2.60;;;0.60;;
9240;SDS011;53485;49.326;9.738;2022-09-28T11:47:02;1.00;;;0.80;;
9240;SDS011;53485;49.326;9.738;2022-09-28T11:49:32;2.97;;;0.60;;
9240;SDS011;53485;49.326;9.738;2022-09-28T11:52:08;1.27;;;0.50;;
9240;SDS011;53485;49.326;9.738;2022-09-28T11:54:39;1.57;;;0.40;;
9240;SDS011;53485;49.326;9.738;2022-09-28T11:57:04;1.47;;;0.67;;
9240;SDS011;53485;49.326;9.738;2022-09-28T11:59:32;1.10;;;0.60;;
9240;SDS011;53485;49.326;9.738;2022-09-28T12:02:00;2.70;;;0.60;;
9240;SDS011;53485;49.326;9.738;2022-09-28T12:04:27;1.27;;;0.70;;
9240;SDS011;53485;49.326;9.738;2022-09-28T12:06:58;2.17;;;0.80;;
9240;SDS011;53485;49.326;9.738;2022-09-28T12:09:30;1.57;;;0.70;;
9240;SDS011;53485;49.326;9.738;2022-09-28T12:11:55;2.17;;;0.60;;
9240;SDS011;53485;49.326;9.738;2022-09-28T12:14:22;1.13;;;0.70;;
9240;SDS011;53485;49.326;9.738;2022-09-28T12:19:28;5.50;;;0.70;;
9240;SDS011;53485;49.326;9.738;2022-09-28T12:21:54;1.13;;;0.80;;
9240;SDS011;53485;49.326;9.738;2022-09-28T12:24:38;2.77;;;0.60;;
9240;SDS011;53485;49.326;9.738;2022-09-28T12:27:06;1.57;;;0.53;;
9240;SDS011;53485;49.326;9.738;2022-09-28T12:29:45;1.13;;;0.50;;
9240;SDS011;53485;49.326;9.738;2022-09-28T12:32:20;1.97;;;0.70;;
9240;SDS011;53485;49.326;9.738;2022-09-28T12:34:56;4.73;;;0.70;;
9240;SDS011;53485;49.326;9.738;2022-09-28T12:43:04;2.60;;;0.73;;
9240;SDS011;53485;49.326;9.738;2022-09-28T12:45:52;2.70;;;0.70;;
9240;SDS011;53485;49.326;9.738;2022-09-28T12:49:28;2.47;;;0.67;;
9240;SDS011;53485;49.326;9.738;2022-09-28T12:51:29;4.27;;;0.73;;
9240;SDS011;53485;49.326;9.738;2022-09-28T13:00:12;2.20;;;0.83;;
9240;SDS011;53485;49.326;9.738;2022-09-28T13:06:05;4.43;;;1.00;;
9240;SDS011;53485;49.326;9.738;2022-09-28T13:08:40;1.17;;;0.67;;
9240;SDS011;53485;49.326;9.738;2022-09-28T13:11:07;1.43;;;0.80;;
9240;SDS011;53485;49.326;9.738;2022-09-28T13:13:57;1.77;;;1.00;;
9240;SDS011;53485;49.326;9.738;2022-09-28T13:19:14;2.53;;;0.93;;
9240;SDS011;53485;49.326;9.738;2022-09-28T13:21:54;2.50;;;0.80;;
9240;SDS011;53485;49.326;9.738;2022-09-28T13:24:37;1.67;;;0.70;;
9240;SDS011;53485;49.326;9.738;2022-09-28T13:27:06;1.33;;;0.60;;
9240;SDS011;53485;49.326;9.738;2022-09-28T13:29:31;3.70;;;0.87;;
9240;SDS011;53485;49.326;9.738;2022-09-28T13:31:58;4.30;;;1.10;;
9240;SDS011;53485;49.326;9.738;2022-09-28T13:34:27;2.53;;;0.70;;
9240;SDS011;53485;49.326;9.738;2022-09-28T13:37:26;1.80;;;0.97;;
9240;SDS011;53485;49.326;9.738;2022-09-28T13:39:49;4.60;;;1.00;;
9240;SDS011;53485;49.326;9.738;2022-09-28T13:44:56;4.10;;;1.20;;
9240;SDS011;53485;49.326;9.738;2022-09-28T13:47:25;2.07;;;1.07;;
9240;SDS011;53485;49.326;9.738;2022-09-28T13:49:51;1.10;;;0.80;;
9240;SDS011;53485;49.326;9.738;2022-09-28T13:52:34;1.53;;;0.90;;
9240;SDS011;53485;49.326;9.738;2022-09-28T13:55:02;2.27;;;1.10;;
9240;SDS011;53485;49.326;9.738;2022-09-28T13:57:51;2.50;;;1.10;;
9240;SDS011;53485;49.326;9.738;2022-09-28T14:00:28;3.43;;;1.10;;
9240;SDS011;53485;49.326;9.738;2022-09-28T14:02:55;3.77;;;0.97;;
9240;SDS011;53485;49.326;9.738;2022-09-28T14:06:28;2.60;;;0.90;;
9240;SDS011;53485;49.326;9.738;2022-09-28T14:10:48;4.87;;;0.80;;
9240;SDS011;53485;49.326;9.738;2022-09-28T14:13:40;0.67;;;0.60;;
9240;SDS011;53485;49.326;9.738;2022-09-28T14:15:41;2.00;;;0.63;;
9240;SDS011;53485;49.326;9.738;2022-09-28T14:18:13;7.63;;;0.70;;
9240;SDS011;53485;49.326;9.738;2022-09-28T14:20:41;2.07;;;0.60;;
9240;SDS011;53485;49.326;9.738;2022-09-28T14:23:12;1.77;;;0.50;;
9240;SDS011;53485;49.326;9.738;2022-09-28T14:28:29;1.47;;;0.30;;
9240;SDS011;53485;49.326;9.738;2022-09-28T14:30:54;0.97;;;0.50;;
9240;SDS011;53485;49.326;9.738;2022-09-28T14:33:22;2.20;;;0.40;;
9240;SDS011;53485;49.326;9.738;2022-09-28T14:35:53;1.33;;;0.40;;
9240;SDS011;53485;49.326;9.738;2022-09-28T14:38:19;1.07;;;0.40;;
9240;SDS011;53485;49.326;9.738;2022-09-28T14:40:56;0.97;;;0.30;;
9240;SDS011;53485;49.326;9.738;2022-09-28T14:43:36;0.40;;;0.40;;
9240;SDS011;53485;49.326;9.738;2022-09-28T14:48:52;0.63;;;0.40;;
9240;SDS011;53485;49.326;9.738;2022-09-28T14:54:16;0.70;;;0.30;;
9240;SDS011;53485;49.326;9.738;2022-09-28T14:56:50;1.60;;;0.40;;
9240;SDS011;53485;49.326;9.738;2022-09-28T14:59:37;1.07;;;0.60;;
9240;SDS011;53485;49.326;9.738;2022-09-28T15:01:59;4.00;;;1.83;;
9240;SDS011;53485;49.326;9.738;2022-09-28T15:04:27;1.20;;;0.83;;
9240;SDS011;53485;49.326;9.738;2022-09-28T15:06:52;1.17;;;0.40;;
9240;SDS011;53485;49.326;9.738;2022-09-28T15:09:30;2.87;;;0.60;;
9240;SDS011;53485;49.326;9.738;2022-09-28T15:12:01;3.07;;;0.40;;
9240;SDS011;53485;49.326;9.738;2022-09-28T15:14:44;0.87;;;0.50;;
9240;SDS011;53485;49.326;9.738;2022-09-28T15:17:11;0.80;;;0.50;;
9240;SDS011;53485;49.326;9.738;2022-09-28T15:19:41;1.33;;;0.50;;
9240;SDS011;53485;49.326;9.738;2022-09-28T15:22:13;1.60;;;0.67;;
9240;SDS011;53485;49.326;9.738;2022-09-28T15:24:43;1.53;;;0.70;;
9240;SDS011;53485;49.326;9.738;2022-09-28T15:27:13;2.23;;;1.10;;
9240;SDS011;53485;49.326;9.738;2022-09-28T15:29:40;2.60;;;1.23;;
9240;SDS011;53485;49.326;9.738;2022-09-28T15:32:21;4.17;;;1.10;;
9240;SDS011;53485;49.326;9.738;2022-09-28T15:34:34;4.07;;;0.80;;
9240;SDS011;53485;49.326;9.738;2022-09-28T15:37:05;1.00;;;0.90;;
9240;SDS011;53485;49.326;9.738;2022-09-28T15:39:32;4.17;;;1.60;;
9240;SDS011;53485;49.326;9.738;2022-09-28T15:41:59;3.00;;;0.80;;
9240;SDS011;53485;49.326;9.738;2022-09-28T15:44:28;1.20;;;1.10;;
9240;SDS011;53485;49.326;9.738;2022-09-28T15:49:35;1.43;;;1.00;;
9240;SDS011;53485;49.326;9.738;2022-09-28T15:52:00;0.97;;;0.90;;
9240;SDS011;53485;49.326;9.738;2022-09-28T15:54:28;1.10;;;1.00;;
9240;SDS011;53485;49.326;9.738;2022-09-28T15:56:55;1.67;;;0.70;;
9240;SDS011;53485;49.326;9.738;2022-09-28T15:59:25;5.07;;;0.80;;
9240;SDS011;53485;49.326;9.738;2022-09-28T16:02:00;1.23;;;0.70;;
9240;SDS011;53485;49.326;9.738;2022-09-28T16:09:54;1.87;;;0.70;;
9240;SDS011;53485;49.326;9.738;2022-09-28T16:12:43;0.90;;;0.50;;
9240;SDS011;53485;49.326;9.738;2022-09-28T16:17:49;2.43;;;0.70;;
9240;SDS011;53485;49.326;9.738;2022-09-28T16:20:17;1.57;;;0.80;;
9240;SDS011;53485;49.326;9.738;2022-09-28T16:22:46;0.90;;;0.80;;
9240;SDS011;53485;49.326;9.738;2022-09-28T16:25:16;3.43;;;0.87;;
9240;SDS011;53485;49.326;9.738;2022-09-28T16:27:42;1.73;;;0.80;;
9240;SDS011;53485;49.326;9.738;2022-09-28T16:30:12;1.30;;;0.93;;
9240;SDS011;53485;49.326;9.738;2022-09-28T16:32:44;1.30;;;0.93;;